sensor_id;sensor_type;location;lat;lon;timestamp;P1;durP1;ratioP1;P2;durP2;ratioP2
83963;SDS011;73994;50.868;5.420;2024-03-23T00:53:43;7.93;;;2.25;;
83963;SDS011;73994;50.868;5.420;2024-03-23T00:59:31;8.65;;;2.33;;
83963;SDS011;73994;50.868;5.420;2024-03-23T01:05:18;5.57;;;2.13;;
83963;SDS011;73994;50.868;5.420;2024-03-23T01:11:06;9.30;;;2.28;;
83963;SDS011;73994;50.868;5.420;2024-03-23T01:16:53;8.77;;;2.00;;
83963;SDS011;73994;50.868;5.420;2024-03-23T01:22:41;5.10;;;1.88;;
83963;SDS011;73994;50.868;5.420;2024-03-23T01:28:29;6.38;;;2.35;;
83963;SDS011;73994;50.868;5.420;2024-03-23T01:34:16;9.63;;;1.88;;
83963;SDS011;73994;50.868;5.420;2024-03-23T01:40:04;3.20;;;1.60;;
83963;SDS011;73994;50.868;5.420;2024-03-23T01:45:52;6.22;;;2.40;;
83963;SDS011;73994;50.868;5.420;2024-03-23T01:51:40;4.25;;;2.10;;
83963;SDS011;73994;50.868;5.420;2024-03-23T01:57:29;7.05;;;1.77;;
83963;SDS011;73994;50.868;5.420;2024-03-23T02:03:24;4.70;;;1.70;;
83963;SDS011;73994;50.868;5.420;2024-03-23T02:09:12;9.30;;;1.52;;
83963;SDS011;73994;50.868;5.420;2024-03-23T02:15:00;6.72;;;2.40;;
83963;SDS011;73994;50.868;5.420;2024-03-23T02:20:48;5.55;;;2.30;;
83963;SDS011;73994;50.868;5.420;2024-03-23T02:26:35;7.90;;;1.63;;
83963;SDS011;73994;50.868;5.420;2024-03-23T02:32:23;3.53;;;1.70;;
83963;SDS011;73994;50.868;5.420;2024-03-23T02:38:10;4.68;;;1.80;;
83963;SDS011;73994;50.868;5.420;2024-03-23T02:43:58;9.63;;;1.90;;
83963;SDS011;73994;50.868;5.420;2024-03-23T02:49:45;7.13;;;1.80;;
83963;SDS011;73994;50.868;5.420;2024-03-23T02:55:33;5.57;;;1.73;;
83963;SDS011;73994;50.868;5.420;2024-03-23T03:01:20;6.05;;;1.85;;
83963;SDS011;73994;50.868;5.420;2024-03-23T03:07:08;6.28;;;2.05;;
83963;SDS011;73994;50.868;5.420;2024-03-23T03:12:56;7.00;;;2.20;;
83963;SDS011;73994;50.868;5.420;2024-03-23T03:18:44;8.02;;;2.08;;
83963;SDS011;73994;50.868;5.420;2024-03-23T03:24:33;8.77;;;2.05;;
83963;SDS011;73994;50.868;5.420;2024-03-23T03:30:20;5.18;;;2.28;;
83963;SDS011;73994;50.868;5.420;2024-03-23T03:36:08;5.82;;;1.75;;
83963;SDS011;73994;50.868;5.420;2024-03-23T03:41:55;9.35;;;2.70;;
83963;SDS011;73994;50.868;5.420;2024-03-23T03:47:43;6.53;;;1.67;;
83963;SDS011;73994;50.868;5.420;2024-03-23T03:53:30;4.97;;;1.60;;
83963;SDS011;73994;50.868;5.420;2024-03-23T03:59:18;6.85;;;1.88;;
83963;SDS011;73994;50.868;5.420;2024-03-23T04:05:06;4.82;;;1.85;;
83963;SDS011;73994;50.868;5.420;2024-03-23T04:10:54;10.02;;;2.25;;
83963;SDS011;73994;50.868;5.420;2024-03-23T04:16:41;4.40;;;1.90;;
83963;SDS011;73994;50.868;5.420;2024-03-23T04:22:29;7.75;;;1.92;;
83963;SDS011;73994;50.868;5.420;2024-03-23T04:28:16;7.05;;;1.92;;
83963;SDS011;73994;50.868;5.420;2024-03-23T04:34:04;6.50;;;2.03;;
83963;SDS011;73994;50.868;5.420;2024-03-23T04:39:51;7.05;;;1.52;;
83963;SDS011;73994;50.868;5.420;2024-03-23T04:45:39;6.32;;;2.28;;
83963;SDS011;73994;50.868;5.420;2024-03-23T04:51:26;3.15;;;1.40;;
83963;SDS011;73994;50.868;5.420;2024-03-23T04:57:13;7.20;;;2.60;;
83963;SDS011;73994;50.868;5.420;2024-03-23T05:03:00;14.75;;;3.03;;
83963;SDS011;73994;50.868;5.420;2024-03-23T05:08:47;9.02;;;2.92;;
83963;SDS011;73994;50.868;5.420;2024-03-23T05:14:34;11.60;;;3.25;;
83963;SDS011;73994;50.868;5.420;2024-03-23T05:20:21;9.10;;;3.97;;
83963;SDS011;73994;50.868;5.420;2024-03-23T05:26:08;10.13;;;3.95;;
83963;SDS011;73994;50.868;5.420;2024-03-23T05:31:56;8.18;;;4.00;;
83963;SDS011;73994;50.868;5.420;2024-03-23T05:37:44;9.38;;;3.55;;
83963;SDS011;73994;50.868;5.420;2024-03-23T05:43:31;8.55;;;3.75;;
83963;SDS011;73994;50.868;5.420;2024-03-23T05:49:18;11.23;;;3.63;;
83963;SDS011;73994;50.868;5.420;2024-03-23T05:55:06;10.18;;;3.80;;
83963;SDS011;73994;50.868;5.420;2024-03-23T06:00:57;10.02;;;4.68;;
83963;SDS011;73994;50.868;5.420;2024-03-23T06:06:47;12.02;;;5.57;;
83963;SDS011;73994;50.868;5.420;2024-03-23T06:12:34;9.65;;;4.20;;
83963;SDS011;73994;50.868;5.420;2024-03-23T06:18:22;10.85;;;4.22;;
83963;SDS011;73994;50.868;5.420;2024-03-23T06:24:10;15.93;;;4.60;;
83963;SDS011;73994;50.868;5.420;2024-03-23T06:29:59;10.15;;;4.72;;
83963;SDS011;73994;50.868;5.420;2024-03-23T06:35:50;7.35;;;3.63;;
83963;SDS011;73994;50.868;5.420;2024-03-23T06:41:38;7.78;;;4.65;;
83963;SDS011;73994;50.868;5.420;2024-03-23T06:47:26;9.40;;;4.93;;
83963;SDS011;73994;50.868;5.420;2024-03-23T06:53:14;15.35;;;5.25;;
83963;SDS011;73994;50.868;5.420;2024-03-23T06:59:01;11.25;;;5.38;;
83963;SDS011;73994;50.868;5.420;2024-03-23T07:04:49;9.75;;;3.90;;
83963;SDS011;73994;50.868;5.420;2024-03-23T07:10:39;5.93;;;3.25;;
83963;SDS011;73994;50.868;5.420;2024-03-23T07:16:27;8.80;;;3.97;;
83963;SDS011;73994;50.868;5.420;2024-03-23T07:22:14;6.78;;;4.00;;
83963;SDS011;73994;50.868;5.420;2024-03-23T07:28:02;11.55;;;3.15;;
83963;SDS011;73994;50.868;5.420;2024-03-23T07:33:50;9.13;;;2.95;;
83963;SDS011;73994;50.868;5.420;2024-03-23T07:39:37;10.32;;;3.03;;
83963;SDS011;73994;50.868;5.420;2024-03-23T07:45:25;6.70;;;2.40;;
83963;SDS011;73994;50.868;5.420;2024-03-23T07:51:17;7.95;;;2.78;;
83963;SDS011;73994;50.868;5.420;2024-03-23T07:57:08;9.18;;;2.03;;
83963;SDS011;73994;50.868;5.420;2024-03-23T08:02:55;7.28;;;2.00;;
83963;SDS011;73994;50.868;5.420;2024-03-23T08:08:43;8.52;;;2.00;;
83963;SDS011;73994;50.868;5.420;2024-03-23T08:14:31;5.10;;;1.27;;
83963;SDS011;73994;50.868;5.420;2024-03-23T08:20:18;5.45;;;2.47;;
83963;SDS011;73994;50.868;5.420;2024-03-23T08:26:06;9.35;;;2.33;;
83963;SDS011;73994;50.868;5.420;2024-03-23T08:32:09;7.28;;;1.75;;
83963;SDS011;73994;50.868;5.420;2024-03-23T08:37:56;5.35;;;2.30;;
83963;SDS011;73994;50.868;5.420;2024-03-23T08:43:44;3.28;;;1.40;;
83963;SDS011;73994;50.868;5.420;2024-03-23T08:49:31;3.00;;;1.40;;
83963;SDS011;73994;50.868;5.420;2024-03-23T08:55:18;1.83;;;1.15;;
83963;SDS011;73994;50.868;5.420;2024-03-23T09:01:10;2.45;;;1.30;;
83963;SDS011;73994;50.868;5.420;2024-03-23T09:07:00;3.83;;;0.85;;
83963;SDS011;73994;50.868;5.420;2024-03-23T09:12:47;4.65;;;1.55;;
83963;SDS011;73994;50.868;5.420;2024-03-23T09:18:35;5.15;;;1.60;;
83963;SDS011;73994;50.868;5.420;2024-03-23T09:24:23;3.65;;;1.40;;
83963;SDS011;73994;50.868;5.420;2024-03-23T09:30:11;5.82;;;1.58;;
83963;SDS011;73994;50.868;5.420;2024-03-23T09:36:26;4.70;;;1.48;;
83963;SDS011;73994;50.868;5.420;2024-03-23T09:42:14;3.42;;;1.30;;
83963;SDS011;73994;50.868;5.420;2024-03-23T09:48:01;5.25;;;1.40;;
83963;SDS011;73994;50.868;5.420;2024-03-23T09:53:50;3.85;;;1.02;;
83963;SDS011;73994;50.868;5.420;2024-03-23T09:59:39;2.13;;;0.68;;
83963;SDS011;73994;50.868;5.420;2024-03-23T10:05:27;4.78;;;1.38;;
83963;SDS011;73994;50.868;5.420;2024-03-23T10:11:15;4.22;;;1.30;;
83963;SDS011;73994;50.868;5.420;2024-03-23T10:17:13;4.55;;;1.50;;
83963;SDS011;73994;50.868;5.420;2024-03-23T10:23:01;5.93;;;2.28;;
83963;SDS011;73994;50.868;5.420;2024-03-23T10:34:54;2.45;;;1.30;;
83963;SDS011;73994;50.868;5.420;2024-03-23T10:40:42;5.30;;;1.35;;
83963;SDS011;73994;50.868;5.420;2024-03-23T10:46:30;4.38;;;0.90;;
83963;SDS011;73994;50.868;5.420;2024-03-23T10:52:18;1.73;;;1.25;;
83963;SDS011;73994;50.868;5.420;2024-03-23T10:58:06;4.80;;;1.88;;
83963;SDS011;73994;50.868;5.420;2024-03-23T11:03:54;2.72;;;1.25;;
83963;SDS011;73994;50.868;5.420;2024-03-23T11:09:41;2.35;;;1.60;;
83963;SDS011;73994;50.868;5.420;2024-03-23T11:15:32;1.50;;;1.40;;
83963;SDS011;73994;50.868;5.420;2024-03-23T11:27:38;1.90;;;1.13;;
83963;SDS011;73994;50.868;5.420;2024-03-23T12:57:19;3.58;;;1.13;;
83963;SDS011;73994;50.868;5.420;2024-03-23T12:59:45;2.80;;;0.90;;
83963;SDS011;73994;50.868;5.420;2024-03-23T13:02:15;2.83;;;1.33;;
83963;SDS011;73994;50.868;5.420;2024-03-23T13:04:45;4.45;;;1.02;;
83963;SDS011;73994;50.868;5.420;2024-03-23T13:07:20;3.10;;;1.13;;
83963;SDS011;73994;50.868;5.420;2024-03-23T13:09:49;2.55;;;0.80;;
83963;SDS011;73994;50.868;5.420;2024-03-23T13:12:16;3.78;;;0.80;;
83963;SDS011;73994;50.868;5.420;2024-03-23T13:14:43;2.63;;;1.23;;
83963;SDS011;73994;50.868;5.420;2024-03-23T13:17:09;3.42;;;1.13;;
83963;SDS011;73994;50.868;5.420;2024-03-23T13:19:35;3.17;;;1.20;;
83963;SDS011;73994;50.868;5.420;2024-03-23T13:22:01;1.60;;;0.63;;
83963;SDS011;73994;50.868;5.420;2024-03-23T13:24:27;4.05;;;1.15;;
83963;SDS011;73994;50.868;5.420;2024-03-23T13:26:54;2.70;;;1.10;;
83963;SDS011;73994;50.868;5.420;2024-03-23T13:29:20;3.45;;;1.27;;
83963;SDS011;73994;50.868;5.420;2024-03-23T13:31:47;3.10;;;1.50;;
83963;SDS011;73994;50.868;5.420;2024-03-23T13:34:13;1.52;;;0.75;;
83963;SDS011;73994;50.868;5.420;2024-03-23T13:36:40;2.15;;;0.73;;
83963;SDS011;73994;50.868;5.420;2024-03-23T13:39:06;2.97;;;0.88;;
83963;SDS011;73994;50.868;5.420;2024-03-23T13:41:42;4.38;;;0.57;;
83963;SDS011;73994;50.868;5.420;2024-03-23T13:44:10;2.13;;;0.90;;
83963;SDS011;73994;50.868;5.420;2024-03-23T13:46:37;1.20;;;0.60;;
83963;SDS011;73994;50.868;5.420;2024-03-23T13:49:03;2.42;;;1.80;;
83963;SDS011;73994;50.868;5.420;2024-03-23T13:51:30;0.52;;;0.43;;
83963;SDS011;73994;50.868;5.420;2024-03-23T13:53:56;1.42;;;0.60;;
83963;SDS011;73994;50.868;5.420;2024-03-23T13:56:25;2.22;;;0.68;;
83963;SDS011;73994;50.868;5.420;2024-03-23T13:58:50;1.15;;;0.50;;
83963;SDS011;73994;50.868;5.420;2024-03-23T14:01:16;1.58;;;0.73;;
83963;SDS011;73994;50.868;5.420;2024-03-23T14:03:42;1.40;;;0.63;;
83963;SDS011;73994;50.868;5.420;2024-03-23T14:06:09;1.17;;;0.90;;
83963;SDS011;73994;50.868;5.420;2024-03-23T14:08:35;1.73;;;0.70;;
83963;SDS011;73994;50.868;5.420;2024-03-23T14:11:04;2.67;;;0.70;;
83963;SDS011;73994;50.868;5.420;2024-03-23T14:13:30;3.00;;;1.08;;
83963;SDS011;73994;50.868;5.420;2024-03-23T14:15:56;1.60;;;0.80;;
83963;SDS011;73994;50.868;5.420;2024-03-23T14:18:23;3.20;;;0.85;;
83963;SDS011;73994;50.868;5.420;2024-03-23T14:20:49;2.13;;;0.70;;
83963;SDS011;73994;50.868;5.420;2024-03-23T14:23:15;2.55;;;0.45;;
83963;SDS011;73994;50.868;5.420;2024-03-23T14:25:41;2.75;;;0.57;;
83963;SDS011;73994;50.868;5.420;2024-03-23T14:28:07;3.45;;;1.10;;
83963;SDS011;73994;50.868;5.420;2024-03-23T14:30:38;3.28;;;0.63;;
83963;SDS011;73994;50.868;5.420;2024-03-23T14:33:08;1.30;;;0.77;;
83963;SDS011;73994;50.868;5.420;2024-03-23T14:35:34;3.88;;;0.90;;
83963;SDS011;73994;50.868;5.420;2024-03-23T14:38:01;3.60;;;0.65;;
83963;SDS011;73994;50.868;5.420;2024-03-23T14:40:27;2.13;;;0.93;;
83963;SDS011;73994;50.868;5.420;2024-03-23T14:42:53;1.75;;;0.50;;
83963;SDS011;73994;50.868;5.420;2024-03-23T14:45:20;3.45;;;0.93;;
83963;SDS011;73994;50.868;5.420;2024-03-23T14:47:50;4.13;;;0.57;;
83963;SDS011;73994;50.868;5.420;2024-03-23T14:50:16;1.13;;;0.60;;
83963;SDS011;73994;50.868;5.420;2024-03-23T14:52:44;1.77;;;0.70;;
83963;SDS011;73994;50.868;5.420;2024-03-23T14:55:10;1.48;;;0.77;;
83963;SDS011;73994;50.868;5.420;2024-03-23T14:57:36;1.30;;;0.45;;
83963;SDS011;73994;50.868;5.420;2024-03-23T15:00:04;2.83;;;0.90;;
83963;SDS011;73994;50.868;5.420;2024-03-23T15:02:36;2.67;;;0.85;;
83963;SDS011;73994;50.868;5.420;2024-03-23T15:05:02;0.98;;;0.60;;
83963;SDS011;73994;50.868;5.420;2024-03-23T15:07:29;1.85;;;0.80;;
83963;SDS011;73994;50.868;5.420;2024-03-23T15:09:55;2.78;;;1.40;;
83963;SDS011;73994;50.868;5.420;2024-03-23T15:12:21;3.67;;;0.60;;
83963;SDS011;73994;50.868;5.420;2024-03-23T15:14:47;1.33;;;0.50;;
83963;SDS011;73994;50.868;5.420;2024-03-23T15:17:13;1.27;;;0.20;;
83963;SDS011;73994;50.868;5.420;2024-03-23T15:19:39;4.43;;;0.93;;
83963;SDS011;73994;50.868;5.420;2024-03-23T15:22:06;2.50;;;0.40;;
83963;SDS011;73994;50.868;5.420;2024-03-23T15:24:32;1.23;;;0.40;;
83963;SDS011;73994;50.868;5.420;2024-03-23T15:27:00;3.03;;;1.45;;
83963;SDS011;73994;50.868;5.420;2024-03-23T15:29:28;2.97;;;0.90;;
83963;SDS011;73994;50.868;5.420;2024-03-23T15:31:54;2.53;;;0.77;;
83963;SDS011;73994;50.868;5.420;2024-03-23T15:34:20;0.73;;;0.52;;
83963;SDS011;73994;50.868;5.420;2024-03-23T15:36:49;1.55;;;0.47;;
83963;SDS011;73994;50.868;5.420;2024-03-23T15:39:16;1.90;;;0.73;;
83963;SDS011;73994;50.868;5.420;2024-03-23T15:41:45;1.50;;;0.55;;
83963;SDS011;73994;50.868;5.420;2024-03-23T15:44:13;1.70;;;0.52;;
83963;SDS011;73994;50.868;5.420;2024-03-23T15:46:39;2.25;;;0.73;;
83963;SDS011;73994;50.868;5.420;2024-03-23T15:49:05;1.70;;;0.50;;
83963;SDS011;73994;50.868;5.420;2024-03-23T15:51:31;0.70;;;0.47;;
83963;SDS011;73994;50.868;5.420;2024-03-23T15:54:02;1.55;;;0.70;;
83963;SDS011;73994;50.868;5.420;2024-03-23T15:56:31;1.70;;;0.70;;
83963;SDS011;73994;50.868;5.420;2024-03-23T15:58:56;4.03;;;0.77;;
83963;SDS011;73994;50.868;5.420;2024-03-23T16:01:30;1.77;;;0.60;;
83963;SDS011;73994;50.868;5.420;2024-03-23T16:03:58;1.55;;;0.52;;
83963;SDS011;73994;50.868;5.420;2024-03-23T16:06:24;1.63;;;0.60;;
83963;SDS011;73994;50.868;5.420;2024-03-23T16:08:49;1.25;;;0.57;;
83963;SDS011;73994;50.868;5.420;2024-03-23T16:11:15;1.73;;;0.50;;
83963;SDS011;73994;50.868;5.420;2024-03-23T16:13:41;3.17;;;0.63;;
83963;SDS011;73994;50.868;5.420;2024-03-23T16:16:08;0.30;;;0.30;;
83963;SDS011;73994;50.868;5.420;2024-03-23T16:18:35;1.98;;;0.70;;
83963;SDS011;73994;50.868;5.420;2024-03-23T16:21:02;1.10;;;0.52;;
83963;SDS011;73994;50.868;5.420;2024-03-23T16:23:29;1.42;;;0.57;;
83963;SDS011;73994;50.868;5.420;2024-03-23T16:25:59;2.35;;;0.43;;
83963;SDS011;73994;50.868;5.420;2024-03-23T16:33:25;2.05;;;0.60;;
83963;SDS011;73994;50.868;5.420;2024-03-23T16:35:55;1.50;;;0.43;;
83963;SDS011;73994;50.868;5.420;2024-03-23T16:38:20;3.08;;;1.10;;
83963;SDS011;73994;50.868;5.420;2024-03-23T16:40:52;2.08;;;0.70;;
83963;SDS011;73994;50.868;5.420;2024-03-23T16:43:26;1.45;;;0.52;;
83963;SDS011;73994;50.868;5.420;2024-03-23T16:45:52;1.73;;;0.60;;
83963;SDS011;73994;50.868;5.420;2024-03-23T16:48:19;2.30;;;0.82;;
83963;SDS011;73994;50.868;5.420;2024-03-23T16:50:46;2.97;;;0.82;;
83963;SDS011;73994;50.868;5.420;2024-03-23T16:53:12;2.95;;;0.80;;
83963;SDS011;73994;50.868;5.420;2024-03-23T16:55:38;1.77;;;1.17;;
83963;SDS011;73994;50.868;5.420;2024-03-23T16:58:03;2.35;;;1.00;;
83963;SDS011;73994;50.868;5.420;2024-03-23T17:00:30;5.63;;;1.30;;
83963;SDS011;73994;50.868;5.420;2024-03-23T17:02:56;3.17;;;1.73;;
83963;SDS011;73994;50.868;5.420;2024-03-23T17:05:21;3.47;;;1.30;;
83963;SDS011;73994;50.868;5.420;2024-03-23T17:07:48;2.38;;;1.85;;
83963;SDS011;73994;50.868;5.420;2024-03-23T17:10:14;2.92;;;1.33;;
83963;SDS011;73994;50.868;5.420;2024-03-23T17:12:40;1.50;;;0.98;;
83963;SDS011;73994;50.868;5.420;2024-03-23T17:15:05;2.38;;;1.02;;
83963;SDS011;73994;50.868;5.420;2024-03-23T17:17:32;1.23;;;1.13;;
83963;SDS011;73994;50.868;5.420;2024-03-23T17:19:58;3.10;;;1.38;;
83963;SDS011;73994;50.868;5.420;2024-03-23T17:22:25;1.45;;;1.17;;
83963;SDS011;73994;50.868;5.420;2024-03-23T17:24:52;4.80;;;1.20;;
83963;SDS011;73994;50.868;5.420;2024-03-23T17:27:18;1.90;;;0.88;;
83963;SDS011;73994;50.868;5.420;2024-03-23T17:29:44;3.22;;;1.20;;
83963;SDS011;73994;50.868;5.420;2024-03-23T17:32:11;2.35;;;1.00;;
83963;SDS011;73994;50.868;5.420;2024-03-23T17:34:37;2.72;;;0.80;;
83963;SDS011;73994;50.868;5.420;2024-03-23T17:37:02;8.02;;;2.08;;
83963;SDS011;73994;50.868;5.420;2024-03-23T17:39:31;5.80;;;1.20;;
83963;SDS011;73994;50.868;5.420;2024-03-23T17:41:57;2.10;;;1.48;;
83963;SDS011;73994;50.868;5.420;2024-03-23T17:44:23;3.38;;;1.45;;
83963;SDS011;73994;50.868;5.420;2024-03-23T17:46:49;5.28;;;2.22;;
83963;SDS011;73994;50.868;5.420;2024-03-23T17:49:15;10.38;;;4.03;;
83963;SDS011;73994;50.868;5.420;2024-03-23T17:51:41;3.20;;;2.05;;
83963;SDS011;73994;50.868;5.420;2024-03-23T17:54:08;5.57;;;2.55;;
83963;SDS011;73994;50.868;5.420;2024-03-23T17:56:34;32.53;;;19.85;;
83963;SDS011;73994;50.868;5.420;2024-03-23T17:59:00;18.30;;;9.07;;
83963;SDS011;73994;50.868;5.420;2024-03-23T18:01:26;15.35;;;12.95;;
83963;SDS011;73994;50.868;5.420;2024-03-23T18:03:52;6.50;;;2.85;;
83963;SDS011;73994;50.868;5.420;2024-03-23T18:06:18;5.13;;;2.45;;
83963;SDS011;73994;50.868;5.420;2024-03-23T18:08:44;5.68;;;4.45;;
83963;SDS011;73994;50.868;5.420;2024-03-23T18:11:10;5.57;;;2.42;;
83963;SDS011;73994;50.868;5.420;2024-03-23T18:13:36;4.32;;;2.20;;
83963;SDS011;73994;50.868;5.420;2024-03-23T18:16:01;4.70;;;3.38;;
83963;SDS011;73994;50.868;5.420;2024-03-23T18:18:28;6.53;;;5.40;;
83963;SDS011;73994;50.868;5.420;2024-03-23T18:20:54;5.97;;;4.25;;
83963;SDS011;73994;50.868;5.420;2024-03-23T18:23:20;9.45;;;6.97;;
83963;SDS011;73994;50.868;5.420;2024-03-23T18:25:55;4.80;;;2.50;;
83963;SDS011;73994;50.868;5.420;2024-03-23T18:28:21;3.47;;;1.50;;
83963;SDS011;73994;50.868;5.420;2024-03-23T18:30:56;2.35;;;1.65;;
83963;SDS011;73994;50.868;5.420;2024-03-23T18:33:23;4.97;;;1.40;;
83963;SDS011;73994;50.868;5.420;2024-03-23T18:35:50;2.63;;;1.20;;
83963;SDS011;73994;50.868;5.420;2024-03-23T18:38:16;2.30;;;1.40;;
83963;SDS011;73994;50.868;5.420;2024-03-23T18:40:45;2.17;;;1.40;;
83963;SDS011;73994;50.868;5.420;2024-03-23T18:43:12;6.00;;;2.20;;
83963;SDS011;73994;50.868;5.420;2024-03-23T18:45:48;3.92;;;1.42;;
83963;SDS011;73994;50.868;5.420;2024-03-23T18:48:14;3.47;;;1.25;;
83963;SDS011;73994;50.868;5.420;2024-03-23T18:50:40;1.55;;;1.42;;
83963;SDS011;73994;50.868;5.420;2024-03-23T18:53:07;2.63;;;1.15;;
83963;SDS011;73994;50.868;5.420;2024-03-23T18:55:34;5.30;;;1.20;;
83963;SDS011;73994;50.868;5.420;2024-03-23T18:58:01;1.60;;;1.17;;
83963;SDS011;73994;50.868;5.420;2024-03-23T19:00:28;5.20;;;1.10;;
83963;SDS011;73994;50.868;5.420;2024-03-23T19:02:54;2.00;;;1.00;;
83963;SDS011;73994;50.868;5.420;2024-03-23T19:05:21;3.45;;;1.42;;
83963;SDS011;73994;50.868;5.420;2024-03-23T19:07:46;4.65;;;2.03;;
83963;SDS011;73994;50.868;5.420;2024-03-23T19:10:12;2.38;;;1.20;;
83963;SDS011;73994;50.868;5.420;2024-03-23T19:12:38;4.03;;;1.80;;
83963;SDS011;73994;50.868;5.420;2024-03-23T19:15:06;4.25;;;1.50;;
83963;SDS011;73994;50.868;5.420;2024-03-23T19:17:35;2.70;;;1.10;;
83963;SDS011;73994;50.868;5.420;2024-03-23T19:20:01;5.13;;;1.83;;
83963;SDS011;73994;50.868;5.420;2024-03-23T19:22:28;3.55;;;1.10;;
83963;SDS011;73994;50.868;5.420;2024-03-23T19:24:54;1.13;;;0.65;;
83963;SDS011;73994;50.868;5.420;2024-03-23T19:27:20;2.78;;;0.77;;
83963;SDS011;73994;50.868;5.420;2024-03-23T19:29:46;3.08;;;1.00;;
83963;SDS011;73994;50.868;5.420;2024-03-23T19:32:12;2.03;;;0.70;;
83963;SDS011;73994;50.868;5.420;2024-03-23T19:34:38;3.17;;;0.93;;
83963;SDS011;73994;50.868;5.420;2024-03-23T19:37:03;2.03;;;0.57;;
83963;SDS011;73994;50.868;5.420;2024-03-23T19:39:30;1.48;;;0.80;;
83963;SDS011;73994;50.868;5.420;2024-03-23T19:41:56;2.55;;;0.70;;
83963;SDS011;73994;50.868;5.420;2024-03-23T19:44:21;1.63;;;0.60;;
83963;SDS011;73994;50.868;5.420;2024-03-23T19:46:47;2.75;;;1.02;;
83963;SDS011;73994;50.868;5.420;2024-03-23T19:49:13;1.83;;;0.60;;
83963;SDS011;73994;50.868;5.420;2024-03-23T19:51:38;2.22;;;1.00;;
83963;SDS011;73994;50.868;5.420;2024-03-23T19:54:04;1.50;;;0.80;;
83963;SDS011;73994;50.868;5.420;2024-03-23T19:56:29;2.78;;;1.08;;
83963;SDS011;73994;50.868;5.420;2024-03-23T19:58:55;1.67;;;0.98;;
83963;SDS011;73994;50.868;5.420;2024-03-23T20:01:21;6.10;;;1.35;;
83963;SDS011;73994;50.868;5.420;2024-03-23T20:03:47;2.53;;;0.68;;
83963;SDS011;73994;50.868;5.420;2024-03-23T20:06:13;1.35;;;1.17;;
83963;SDS011;73994;50.868;5.420;2024-03-23T20:08:40;4.10;;;1.60;;
83963;SDS011;73994;50.868;5.420;2024-03-23T20:11:06;3.40;;;1.13;;
83963;SDS011;73994;50.868;5.420;2024-03-23T20:13:32;1.20;;;0.80;;
83963;SDS011;73994;50.868;5.420;2024-03-23T20:15:58;3.05;;;0.65;;
83963;SDS011;73994;50.868;5.420;2024-03-23T20:18:26;2.80;;;0.73;;
83963;SDS011;73994;50.868;5.420;2024-03-23T20:20:55;2.83;;;0.93;;
83963;SDS011;73994;50.868;5.420;2024-03-23T20:23:23;3.22;;;1.25;;
83963;SDS011;73994;50.868;5.420;2024-03-23T20:25:50;0.57;;;0.57;;
83963;SDS011;73994;50.868;5.420;2024-03-23T20:28:18;2.08;;;0.90;;
83963;SDS011;73994;50.868;5.420;2024-03-23T20:30:54;3.05;;;0.80;;
83963;SDS011;73994;50.868;5.420;2024-03-23T20:33:20;0.35;;;0.35;;
83963;SDS011;73994;50.868;5.420;2024-03-23T20:35:49;1.30;;;0.35;;
83963;SDS011;73994;50.868;5.420;2024-03-23T20:38:16;1.92;;;0.55;;
83963;SDS011;73994;50.868;5.420;2024-03-23T20:40:42;1.40;;;0.40;;
83963;SDS011;73994;50.868;5.420;2024-03-23T20:43:08;1.95;;;0.55;;
83963;SDS011;73994;50.868;5.420;2024-03-23T20:45:36;2.92;;;0.52;;
83963;SDS011;73994;50.868;5.420;2024-03-23T20:48:02;2.15;;;0.40;;
83963;SDS011;73994;50.868;5.420;2024-03-23T20:50:28;2.03;;;0.57;;
83963;SDS011;73994;50.868;5.420;2024-03-23T20:52:54;1.58;;;0.55;;
83963;SDS011;73994;50.868;5.420;2024-03-23T20:55:20;1.20;;;0.70;;
83963;SDS011;73994;50.868;5.420;2024-03-23T20:57:46;1.13;;;0.60;;
83963;SDS011;73994;50.868;5.420;2024-03-23T21:00:13;2.95;;;0.70;;
83963;SDS011;73994;50.868;5.420;2024-03-23T21:02:39;2.25;;;0.70;;
83963;SDS011;73994;50.868;5.420;2024-03-23T21:05:05;2.22;;;0.70;;
83963;SDS011;73994;50.868;5.420;2024-03-23T21:07:32;1.92;;;0.63;;
83963;SDS011;73994;50.868;5.420;2024-03-23T21:09:58;3.40;;;0.65;;
83963;SDS011;73994;50.868;5.420;2024-03-23T21:12:23;2.60;;;0.98;;
83963;SDS011;73994;50.868;5.420;2024-03-23T21:14:52;2.97;;;0.80;;
83963;SDS011;73994;50.868;5.420;2024-03-23T21:17:18;1.98;;;0.52;;
83963;SDS011;73994;50.868;5.420;2024-03-23T21:19:47;1.38;;;0.50;;
83963;SDS011;73994;50.868;5.420;2024-03-23T21:22:13;2.35;;;0.82;;
83963;SDS011;73994;50.868;5.420;2024-03-23T21:24:39;2.42;;;0.80;;
83963;SDS011;73994;50.868;5.420;2024-03-23T21:27:05;3.58;;;1.27;;
83963;SDS011;73994;50.868;5.420;2024-03-23T21:29:31;1.83;;;0.90;;
83963;SDS011;73994;50.868;5.420;2024-03-23T21:31:57;2.33;;;0.43;;
83963;SDS011;73994;50.868;5.420;2024-03-23T21:34:23;2.08;;;1.30;;
83963;SDS011;73994;50.868;5.420;2024-03-23T21:36:49;2.30;;;1.20;;
83963;SDS011;73994;50.868;5.420;2024-03-23T21:39:15;1.38;;;0.95;;
83963;SDS011;73994;50.868;5.420;2024-03-23T21:41:44;1.77;;;1.63;;
83963;SDS011;73994;50.868;5.420;2024-03-23T21:44:10;1.67;;;0.82;;
83963;SDS011;73994;50.868;5.420;2024-03-23T21:46:36;2.25;;;1.25;;
83963;SDS011;73994;50.868;5.420;2024-03-23T21:49:02;1.17;;;0.47;;
83963;SDS011;73994;50.868;5.420;2024-03-23T21:51:28;3.28;;;1.40;;
83963;SDS011;73994;50.868;5.420;2024-03-23T21:53:53;0.98;;;0.73;;
83963;SDS011;73994;50.868;5.420;2024-03-23T21:56:22;3.40;;;1.48;;
83963;SDS011;73994;50.868;5.420;2024-03-23T21:58:48;2.20;;;1.20;;
83963;SDS011;73994;50.868;5.420;2024-03-23T22:01:13;5.05;;;1.38;;
83963;SDS011;73994;50.868;5.420;2024-03-23T22:03:42;3.20;;;1.50;;
83963;SDS011;73994;50.868;5.420;2024-03-23T22:06:07;3.80;;;1.17;;
83963;SDS011;73994;50.868;5.420;2024-03-23T22:08:33;2.80;;;1.27;;
83963;SDS011;73994;50.868;5.420;2024-03-23T22:11:00;4.18;;;1.85;;
83963;SDS011;73994;50.868;5.420;2024-03-23T22:13:26;3.80;;;1.60;;
83963;SDS011;73994;50.868;5.420;2024-03-23T22:16:01;2.65;;;1.45;;
83963;SDS011;73994;50.868;5.420;2024-03-23T22:18:28;4.53;;;1.77;;
83963;SDS011;73994;50.868;5.420;2024-03-23T22:20:54;7.18;;;1.50;;
83963;SDS011;73994;50.868;5.420;2024-03-23T22:23:25;3.40;;;1.35;;
83963;SDS011;73994;50.868;5.420;2024-03-23T22:25:51;2.50;;;1.40;;
83963;SDS011;73994;50.868;5.420;2024-03-23T22:28:17;3.22;;;1.80;;
83963;SDS011;73994;50.868;5.420;2024-03-23T22:30:56;1.42;;;1.02;;
83963;SDS011;73994;50.868;5.420;2024-03-23T22:33:24;4.00;;;1.60;;
83963;SDS011;73994;50.868;5.420;2024-03-23T22:35:52;2.58;;;1.77;;
83963;SDS011;73994;50.868;5.420;2024-03-23T22:38:18;1.98;;;0.98;;
83963;SDS011;73994;50.868;5.420;2024-03-23T22:40:57;3.38;;;1.30;;
83963;SDS011;73994;50.868;5.420;2024-03-23T22:43:23;3.33;;;1.50;;
83963;SDS011;73994;50.868;5.420;2024-03-23T22:45:59;1.88;;;0.80;;
83963;SDS011;73994;50.868;5.420;2024-03-23T22:48:27;2.22;;;1.42;;
83963;SDS011;73994;50.868;5.420;2024-03-23T22:50:54;3.78;;;1.75;;
83963;SDS011;73994;50.868;5.420;2024-03-23T22:53:22;1.15;;;0.80;;
83963;SDS011;73994;50.868;5.420;2024-03-23T22:55:49;2.00;;;1.15;;
83963;SDS011;73994;50.868;5.420;2024-03-23T22:58:18;2.40;;;1.00;;
83963;SDS011;73994;50.868;5.420;2024-03-23T23:00:44;3.63;;;1.50;;
83963;SDS011;73994;50.868;5.420;2024-03-23T23:03:14;2.30;;;1.23;;
83963;SDS011;73994;50.868;5.420;2024-03-23T23:05:40;5.32;;;1.77;;
83963;SDS011;73994;50.868;5.420;2024-03-23T23:08:07;4.25;;;1.33;;
83963;SDS011;73994;50.868;5.420;2024-03-23T23:10:33;1.15;;;0.98;;
83963;SDS011;73994;50.868;5.420;2024-03-23T23:12:59;4.18;;;1.40;;
83963;SDS011;73994;50.868;5.420;2024-03-23T23:15:25;2.95;;;1.23;;
83963;SDS011;73994;50.868;5.420;2024-03-23T23:17:51;2.80;;;1.30;;
83963;SDS011;73994;50.868;5.420;2024-03-23T23:20:18;3.58;;;1.42;;
83963;SDS011;73994;50.868;5.420;2024-03-23T23:22:44;2.17;;;1.20;;